sensor_id;sensor_type;location;lat;lon;timestamp;P1;durP1;ratioP1;P2;durP2;ratioP2
58978;SDS011;44763;50.464;30.612;2022-10-16T00:01:28;16.70;;;13.07;;
58978;SDS011;44763;50.464;30.612;2022-10-16T00:03:57;17.00;;;13.23;;
58978;SDS011;44763;50.464;30.612;2022-10-16T00:06:26;15.00;;;12.43;;
58978;SDS011;44763;50.464;30.612;2022-10-16T00:08:55;15.50;;;13.47;;
58978;SDS011;44763;50.464;30.612;2022-10-16T00:11:28;17.53;;;11.87;;
58978;SDS011;44763;50.464;30.612;2022-10-16T00:14:04;17.30;;;12.80;;
58978;SDS011;44763;50.464;30.612;2022-10-16T00:16:33;17.10;;;11.50;;
58978;SDS011;44763;50.464;30.612;2022-10-16T00:19:01;16.87;;;11.37;;
58978;SDS011;44763;50.464;30.612;2022-10-16T00:21:29;16.63;;;10.97;;
58978;SDS011;44763;50.464;30.612;2022-10-16T00:23:58;16.10;;;11.50;;
58978;SDS011;44763;50.464;30.612;2022-10-16T00:26:29;13.97;;;11.53;;
58978;SDS011;44763;50.464;30.612;2022-10-16T00:28:59;17.33;;;11.63;;
58978;SDS011;44763;50.464;30.612;2022-10-16T00:31:26;13.27;;;11.40;;
58978;SDS011;44763;50.464;30.612;2022-10-16T00:33:53;18.43;;;11.77;;
58978;SDS011;44763;50.464;30.612;2022-10-16T00:36:22;17.43;;;12.70;;
58978;SDS011;44763;50.464;30.612;2022-10-16T00:38:53;16.77;;;10.87;;
58978;SDS011;44763;50.464;30.612;2022-10-16T00:41:22;16.90;;;11.10;;
58978;SDS011;44763;50.464;30.612;2022-10-16T00:43:51;19.63;;;11.77;;
58978;SDS011;44763;50.464;30.612;2022-10-16T00:46:24;23.17;;;11.07;;
58978;SDS011;44763;50.464;30.612;2022-10-16T00:51:39;14.20;;;10.47;;
58978;SDS011;44763;50.464;30.612;2022-10-16T00:54:10;12.97;;;10.83;;
58978;SDS011;44763;50.464;30.612;2022-10-16T00:56:41;13.63;;;11.47;;
58978;SDS011;44763;50.464;30.612;2022-10-16T00:59:11;15.73;;;11.40;;
58978;SDS011;44763;50.464;30.612;2022-10-16T01:01:43;16.00;;;12.10;;
58978;SDS011;44763;50.464;30.612;2022-10-16T01:04:09;15.88;;;11.38;;
58978;SDS011;44763;50.464;30.612;2022-10-16T01:09:17;14.70;;;10.67;;
58978;SDS011;44763;50.464;30.612;2022-10-16T01:14:46;12.83;;;11.00;;
58978;SDS011;44763;50.464;30.612;2022-10-16T01:17:21;12.80;;;10.43;;
58978;SDS011;44763;50.464;30.612;2022-10-16T01:22:53;13.33;;;10.30;;
58978;SDS011;44763;50.464;30.612;2022-10-16T01:25:36;14.37;;;10.63;;
58978;SDS011;44763;50.464;30.612;2022-10-16T01:28:11;15.17;;;10.67;;
58978;SDS011;44763;50.464;30.612;2022-10-16T01:30:39;14.83;;;11.20;;
58978;SDS011;44763;50.464;30.612;2022-10-16T01:33:19;15.40;;;10.73;;
58978;SDS011;44763;50.464;30.612;2022-10-16T01:35:56;11.63;;;9.77;;
58978;SDS011;44763;50.464;30.612;2022-10-16T01:38:33;11.33;;;10.13;;
58978;SDS011;44763;50.464;30.612;2022-10-16T01:41:06;15.33;;;10.57;;
58978;SDS011;44763;50.464;30.612;2022-10-16T01:43:53;13.93;;;11.37;;
58978;SDS011;44763;50.464;30.612;2022-10-16T01:46:40;11.67;;;10.20;;
58978;SDS011;44763;50.464;30.612;2022-10-16T01:49:07;14.77;;;11.27;;
58978;SDS011;44763;50.464;30.612;2022-10-16T01:51:36;17.33;;;10.93;;
58978;SDS011;44763;50.464;30.612;2022-10-16T01:54:03;16.83;;;10.40;;
58978;SDS011;44763;50.464;30.612;2022-10-16T01:56:33;11.73;;;10.53;;
58978;SDS011;44763;50.464;30.612;2022-10-16T01:59:06;14.80;;;11.13;;
58978;SDS011;44763;50.464;30.612;2022-10-16T02:01:38;14.37;;;11.10;;
58978;SDS011;44763;50.464;30.612;2022-10-16T02:04:13;14.13;;;11.73;;
58978;SDS011;44763;50.464;30.612;2022-10-16T02:06:44;16.70;;;10.77;;
58978;SDS011;44763;50.464;30.612;2022-10-16T02:09:12;13.07;;;10.43;;
58978;SDS011;44763;50.464;30.612;2022-10-16T02:11:38;13.98;;;11.28;;
58978;SDS011;44763;50.464;30.612;2022-10-16T02:14:06;15.90;;;10.33;;
58978;SDS011;44763;50.464;30.612;2022-10-16T02:16:40;17.77;;;12.13;;
58978;SDS011;44763;50.464;30.612;2022-10-16T02:19:08;14.30;;;11.50;;
58978;SDS011;44763;50.464;30.612;2022-10-16T02:21:54;14.90;;;11.53;;
58978;SDS011;44763;50.464;30.612;2022-10-16T02:24:43;15.90;;;9.40;;
58978;SDS011;44763;50.464;30.612;2022-10-16T02:27:33;18.67;;;12.07;;
58978;SDS011;44763;50.464;30.612;2022-10-16T02:30:11;19.63;;;12.07;;
58978;SDS011;44763;50.464;30.612;2022-10-16T02:32:39;18.67;;;11.93;;
58978;SDS011;44763;50.464;30.612;2022-10-16T02:35:09;15.77;;;11.63;;
58978;SDS011;44763;50.464;30.612;2022-10-16T02:37:36;17.53;;;11.60;;
58978;SDS011;44763;50.464;30.612;2022-10-16T02:40:06;16.23;;;11.67;;
58978;SDS011;44763;50.464;30.612;2022-10-16T02:42:34;13.85;;;11.75;;
58978;SDS011;44763;50.464;30.612;2022-10-16T02:45:04;19.23;;;13.57;;
58978;SDS011;44763;50.464;30.612;2022-10-16T02:47:33;15.67;;;11.90;;
58978;SDS011;44763;50.464;30.612;2022-10-16T02:50:00;13.70;;;11.10;;
58978;SDS011;44763;50.464;30.612;2022-10-16T02:52:26;14.95;;;9.50;;
58978;SDS011;44763;50.464;30.612;2022-10-16T02:54:52;14.13;;;10.45;;
58978;SDS011;44763;50.464;30.612;2022-10-16T02:57:18;16.60;;;10.88;;
58978;SDS011;44763;50.464;30.612;2022-10-16T02:59:44;13.55;;;10.08;;
58978;SDS011;44763;50.464;30.612;2022-10-16T03:02:11;14.18;;;10.20;;
58978;SDS011;44763;50.464;30.612;2022-10-16T03:04:37;16.52;;;10.03;;
58978;SDS011;44763;50.464;30.612;2022-10-16T03:07:03;17.48;;;11.53;;
58978;SDS011;44763;50.464;30.612;2022-10-16T03:09:30;11.18;;;9.63;;
58978;SDS011;44763;50.464;30.612;2022-10-16T03:11:56;13.13;;;9.68;;
58978;SDS011;44763;50.464;30.612;2022-10-16T03:14:23;12.20;;;9.87;;
58978;SDS011;44763;50.464;30.612;2022-10-16T03:16:51;12.97;;;10.00;;
58978;SDS011;44763;50.464;30.612;2022-10-16T03:19:19;11.30;;;9.90;;
58978;SDS011;44763;50.464;30.612;2022-10-16T03:21:45;18.90;;;10.35;;
58978;SDS011;44763;50.464;30.612;2022-10-16T03:24:12;14.37;;;10.63;;
58978;SDS011;44763;50.464;30.612;2022-10-16T03:26:38;13.00;;;9.15;;
58978;SDS011;44763;50.464;30.612;2022-10-16T03:29:04;13.08;;;9.60;;
58978;SDS011;44763;50.464;30.612;2022-10-16T03:31:31;15.60;;;10.13;;
58978;SDS011;44763;50.464;30.612;2022-10-16T03:33:57;13.65;;;9.30;;
58978;SDS011;44763;50.464;30.612;2022-10-16T03:36:23;16.10;;;10.32;;
58978;SDS011;44763;50.464;30.612;2022-10-16T03:38:49;10.90;;;9.60;;
58978;SDS011;44763;50.464;30.612;2022-10-16T03:43:42;12.00;;;9.23;;
58978;SDS011;44763;50.464;30.612;2022-10-16T03:46:10;19.40;;;9.83;;
58978;SDS011;44763;50.464;30.612;2022-10-16T03:48:36;13.22;;;9.58;;
58978;SDS011;44763;50.464;30.612;2022-10-16T03:51:02;13.90;;;10.35;;
58978;SDS011;44763;50.464;30.612;2022-10-16T03:53:28;14.38;;;9.35;;
58978;SDS011;44763;50.464;30.612;2022-10-16T03:55:54;14.07;;;10.15;;
58978;SDS011;44763;50.464;30.612;2022-10-16T03:58:21;14.77;;;9.97;;
58978;SDS011;44763;50.464;30.612;2022-10-16T04:00:48;14.38;;;10.55;;
58978;SDS011;44763;50.464;30.612;2022-10-16T04:03:14;14.40;;;10.10;;
58978;SDS011;44763;50.464;30.612;2022-10-16T04:05:40;12.65;;;10.55;;
58978;SDS011;44763;50.464;30.612;2022-10-16T04:08:06;11.73;;;10.50;;
58978;SDS011;44763;50.464;30.612;2022-10-16T04:10:32;12.63;;;10.85;;
58978;SDS011;44763;50.464;30.612;2022-10-16T04:12:58;14.18;;;9.78;;
58978;SDS011;44763;50.464;30.612;2022-10-16T04:15:24;16.97;;;9.90;;
58978;SDS011;44763;50.464;30.612;2022-10-16T04:17:53;12.07;;;10.47;;
58978;SDS011;44763;50.464;30.612;2022-10-16T04:20:21;15.07;;;11.97;;
58978;SDS011;44763;50.464;30.612;2022-10-16T04:22:47;14.75;;;12.40;;
58978;SDS011;44763;50.464;30.612;2022-10-16T04:25:13;22.20;;;13.83;;
58978;SDS011;44763;50.464;30.612;2022-10-16T04:27:40;15.63;;;13.13;;
58978;SDS011;44763;50.464;30.612;2022-10-16T04:30:08;17.60;;;14.63;;
58978;SDS011;44763;50.464;30.612;2022-10-16T04:32:35;17.70;;;13.10;;
58978;SDS011;44763;50.464;30.612;2022-10-16T04:35:01;15.68;;;11.83;;
58978;SDS011;44763;50.464;30.612;2022-10-16T04:37:29;19.83;;;12.67;;
58978;SDS011;44763;50.464;30.612;2022-10-16T04:39:55;20.52;;;13.30;;
58978;SDS011;44763;50.464;30.612;2022-10-16T04:42:21;16.12;;;13.53;;
58978;SDS011;44763;50.464;30.612;2022-10-16T04:47:14;14.97;;;11.03;;
58978;SDS011;44763;50.464;30.612;2022-10-16T04:49:40;30.15;;;11.83;;
58978;SDS011;44763;50.464;30.612;2022-10-16T04:52:06;18.50;;;12.78;;
58978;SDS011;44763;50.464;30.612;2022-10-16T04:54:35;16.10;;;13.80;;
58978;SDS011;44763;50.464;30.612;2022-10-16T04:57:01;15.72;;;13.43;;
58978;SDS011;44763;50.464;30.612;2022-10-16T04:59:27;19.77;;;15.10;;
58978;SDS011;44763;50.464;30.612;2022-10-16T05:01:53;16.97;;;13.85;;
58978;SDS011;44763;50.464;30.612;2022-10-16T05:04:19;14.07;;;12.73;;
58978;SDS011;44763;50.464;30.612;2022-10-16T05:06:47;14.68;;;12.15;;
58978;SDS011;44763;50.464;30.612;2022-10-16T05:09:13;14.87;;;13.30;;
58978;SDS011;44763;50.464;30.612;2022-10-16T05:11:40;17.35;;;13.38;;
58978;SDS011;44763;50.464;30.612;2022-10-16T05:14:07;22.27;;;15.10;;
58978;SDS011;44763;50.464;30.612;2022-10-16T05:19:01;15.98;;;13.50;;
58978;SDS011;44763;50.464;30.612;2022-10-16T05:23:54;18.03;;;12.27;;
58978;SDS011;44763;50.464;30.612;2022-10-16T05:26:21;17.35;;;13.03;;
58978;SDS011;44763;50.464;30.612;2022-10-16T05:28:47;13.80;;;11.93;;
58978;SDS011;44763;50.464;30.612;2022-10-16T05:31:13;15.63;;;11.25;;
58978;SDS011;44763;50.464;30.612;2022-10-16T05:33:39;13.28;;;11.93;;
58978;SDS011;44763;50.464;30.612;2022-10-16T05:36:06;18.05;;;12.73;;
58978;SDS011;44763;50.464;30.612;2022-10-16T05:38:38;14.78;;;10.32;;
58978;SDS011;44763;50.464;30.612;2022-10-16T05:41:03;17.07;;;12.30;;
58978;SDS011;44763;50.464;30.612;2022-10-16T05:43:31;12.90;;;11.57;;
58978;SDS011;44763;50.464;30.612;2022-10-16T05:46:03;17.20;;;12.05;;
58978;SDS011;44763;50.464;30.612;2022-10-16T05:48:30;13.83;;;12.47;;
58978;SDS011;44763;50.464;30.612;2022-10-16T05:53:29;13.80;;;12.10;;
58978;SDS011;44763;50.464;30.612;2022-10-16T05:55:57;14.55;;;11.83;;
58978;SDS011;44763;50.464;30.612;2022-10-16T05:58:25;15.05;;;12.07;;
58978;SDS011;44763;50.464;30.612;2022-10-16T06:00:58;15.65;;;12.53;;
58978;SDS011;44763;50.464;30.612;2022-10-16T06:03:34;17.17;;;12.30;;
58978;SDS011;44763;50.464;30.612;2022-10-16T06:06:07;15.00;;;12.30;;
58978;SDS011;44763;50.464;30.612;2022-10-16T06:08:40;14.60;;;10.50;;
58978;SDS011;44763;50.464;30.612;2022-10-16T06:11:08;16.93;;;11.68;;
58978;SDS011;44763;50.464;30.612;2022-10-16T06:13:37;21.97;;;13.18;;
58978;SDS011;44763;50.464;30.612;2022-10-16T06:16:07;14.90;;;12.00;;
58978;SDS011;44763;50.464;30.612;2022-10-16T06:18:39;18.77;;;12.40;;
58978;SDS011;44763;50.464;30.612;2022-10-16T06:21:08;13.47;;;12.00;;
58978;SDS011;44763;50.464;30.612;2022-10-16T06:23:45;19.70;;;12.33;;
58978;SDS011;44763;50.464;30.612;2022-10-16T06:26:13;21.10;;;12.60;;
58978;SDS011;44763;50.464;30.612;2022-10-16T06:28:44;14.90;;;11.17;;
58978;SDS011;44763;50.464;30.612;2022-10-16T06:31:10;13.00;;;11.65;;
58978;SDS011;44763;50.464;30.612;2022-10-16T06:33:39;12.97;;;11.00;;
58978;SDS011;44763;50.464;30.612;2022-10-16T06:36:07;17.40;;;12.63;;
58978;SDS011;44763;50.464;30.612;2022-10-16T06:38:36;14.50;;;11.47;;
58978;SDS011;44763;50.464;30.612;2022-10-16T06:41:06;14.27;;;12.17;;
58978;SDS011;44763;50.464;30.612;2022-10-16T06:43:33;17.10;;;12.67;;
58978;SDS011;44763;50.464;30.612;2022-10-16T06:46:03;17.67;;;13.20;;
58978;SDS011;44763;50.464;30.612;2022-10-16T06:48:33;17.30;;;12.97;;
58978;SDS011;44763;50.464;30.612;2022-10-16T06:53:30;16.43;;;12.30;;
58978;SDS011;44763;50.464;30.612;2022-10-16T06:56:09;19.47;;;13.23;;
58978;SDS011;44763;50.464;30.612;2022-10-16T06:58:37;16.83;;;13.23;;
58978;SDS011;44763;50.464;30.612;2022-10-16T07:01:05;20.37;;;13.90;;
58978;SDS011;44763;50.464;30.612;2022-10-16T07:03:38;16.27;;;12.57;;
58978;SDS011;44763;50.464;30.612;2022-10-16T07:06:07;13.57;;;11.93;;
58978;SDS011;44763;50.464;30.612;2022-10-16T07:08:38;19.33;;;12.63;;
58978;SDS011;44763;50.464;30.612;2022-10-16T07:11:12;13.53;;;11.60;;
58978;SDS011;44763;50.464;30.612;2022-10-16T07:13:39;15.83;;;9.87;;
58978;SDS011;44763;50.464;30.612;2022-10-16T07:16:10;13.20;;;9.93;;
58978;SDS011;44763;50.464;30.612;2022-10-16T07:18:47;13.67;;;10.93;;
58978;SDS011;44763;50.464;30.612;2022-10-16T07:21:18;10.77;;;8.57;;
58978;SDS011;44763;50.464;30.612;2022-10-16T07:23:51;12.20;;;8.23;;
58978;SDS011;44763;50.464;30.612;2022-10-16T07:26:19;11.20;;;8.30;;
58978;SDS011;44763;50.464;30.612;2022-10-16T07:28:47;12.07;;;8.00;;
58978;SDS011;44763;50.464;30.612;2022-10-16T07:31:13;9.35;;;8.05;;
58978;SDS011;44763;50.464;30.612;2022-10-16T07:33:43;9.20;;;8.23;;
58978;SDS011;44763;50.464;30.612;2022-10-16T07:36:13;12.20;;;7.67;;
58978;SDS011;44763;50.464;30.612;2022-10-16T07:38:40;11.07;;;7.27;;
58978;SDS011;44763;50.464;30.612;2022-10-16T07:41:13;8.57;;;7.23;;
58978;SDS011;44763;50.464;30.612;2022-10-16T07:43:49;13.00;;;8.47;;
58978;SDS011;44763;50.464;30.612;2022-10-16T07:46:18;13.43;;;8.83;;
58978;SDS011;44763;50.464;30.612;2022-10-16T07:48:47;10.80;;;7.87;;
58978;SDS011;44763;50.464;30.612;2022-10-16T07:51:21;11.90;;;8.57;;
58978;SDS011;44763;50.464;30.612;2022-10-16T07:53:47;10.40;;;8.40;;
58978;SDS011;44763;50.464;30.612;2022-10-16T07:56:15;12.70;;;10.13;;
58978;SDS011;44763;50.464;30.612;2022-10-16T07:58:42;8.53;;;7.73;;
58978;SDS011;44763;50.464;30.612;2022-10-16T08:01:11;8.07;;;7.37;;
58978;SDS011;44763;50.464;30.612;2022-10-16T08:03:42;10.67;;;7.87;;
58978;SDS011;44763;50.464;30.612;2022-10-16T08:06:14;11.00;;;8.40;;
58978;SDS011;44763;50.464;30.612;2022-10-16T08:08:41;12.43;;;8.70;;
58978;SDS011;44763;50.464;30.612;2022-10-16T08:11:08;10.55;;;8.98;;
58978;SDS011;44763;50.464;30.612;2022-10-16T08:13:36;10.30;;;9.20;;
58978;SDS011;44763;50.464;30.612;2022-10-16T08:16:03;10.63;;;9.53;;
58978;SDS011;44763;50.464;30.612;2022-10-16T08:18:32;12.50;;;7.80;;
58978;SDS011;44763;50.464;30.612;2022-10-16T08:21:00;10.23;;;8.50;;
58978;SDS011;44763;50.464;30.612;2022-10-16T08:23:27;11.43;;;7.73;;
58978;SDS011;44763;50.464;30.612;2022-10-16T08:25:54;8.47;;;7.57;;
58978;SDS011;44763;50.464;30.612;2022-10-16T08:28:23;13.73;;;10.03;;
58978;SDS011;44763;50.464;30.612;2022-10-16T08:30:49;11.68;;;8.45;;
58978;SDS011;44763;50.464;30.612;2022-10-16T08:33:15;9.48;;;8.53;;
58978;SDS011;44763;50.464;30.612;2022-10-16T08:35:41;11.97;;;8.98;;
58978;SDS011;44763;50.464;30.612;2022-10-16T08:38:08;8.53;;;7.10;;
58978;SDS011;44763;50.464;30.612;2022-10-16T08:40:35;13.70;;;7.67;;
58978;SDS011;44763;50.464;30.612;2022-10-16T08:48:57;6.77;;;5.37;;
58978;SDS011;44763;50.464;30.612;2022-10-16T08:51:29;7.40;;;6.70;;
58978;SDS011;44763;50.464;30.612;2022-10-16T08:53:59;7.20;;;5.70;;
58978;SDS011;44763;50.464;30.612;2022-10-16T08:56:56;8.10;;;5.13;;
58978;SDS011;44763;50.464;30.612;2022-10-16T08:59:30;9.30;;;5.83;;
58978;SDS011;44763;50.464;30.612;2022-10-16T09:01:57;7.03;;;6.17;;
58978;SDS011;44763;50.464;30.612;2022-10-16T09:04:38;7.67;;;6.10;;
58978;SDS011;44763;50.464;30.612;2022-10-16T09:07:22;5.90;;;5.30;;
58978;SDS011;44763;50.464;30.612;2022-10-16T09:10:05;6.37;;;4.87;;
58978;SDS011;44763;50.464;30.612;2022-10-16T09:12:54;6.13;;;5.13;;
58978;SDS011;44763;50.464;30.612;2022-10-16T09:21:44;2.93;;;2.63;;
58978;SDS011;44763;50.464;30.612;2022-10-16T09:24:14;3.63;;;2.67;;
58978;SDS011;44763;50.464;30.612;2022-10-16T09:26:50;3.83;;;2.52;;
58978;SDS011;44763;50.464;30.612;2022-10-16T09:29:16;4.78;;;2.60;;
58978;SDS011;44763;50.464;30.612;2022-10-16T09:31:51;2.77;;;1.93;;
58978;SDS011;44763;50.464;30.612;2022-10-16T09:34:32;2.55;;;2.33;;
58978;SDS011;44763;50.464;30.612;2022-10-16T09:37:03;2.70;;;2.10;;
58978;SDS011;44763;50.464;30.612;2022-10-16T09:39:48;3.93;;;3.57;;
58978;SDS011;44763;50.464;30.612;2022-10-16T09:42:27;3.83;;;2.60;;
58978;SDS011;44763;50.464;30.612;2022-10-16T09:44:58;3.35;;;3.02;;
58978;SDS011;44763;50.464;30.612;2022-10-16T09:49:54;2.63;;;2.40;;
58978;SDS011;44763;50.464;30.612;2022-10-16T09:52:32;3.67;;;2.93;;
58978;SDS011;44763;50.464;30.612;2022-10-16T09:55:01;5.57;;;3.30;;
58978;SDS011;44763;50.464;30.612;2022-10-16T09:57:53;3.77;;;3.35;;
58978;SDS011;44763;50.464;30.612;2022-10-16T10:00:22;5.95;;;3.70;;
58978;SDS011;44763;50.464;30.612;2022-10-16T10:02:50;6.22;;;3.52;;
58978;SDS011;44763;50.464;30.612;2022-10-16T10:05:24;3.50;;;3.17;;
58978;SDS011;44763;50.464;30.612;2022-10-16T10:07:59;3.23;;;2.47;;
58978;SDS011;44763;50.464;30.612;2022-10-16T10:10:32;3.53;;;2.30;;
58978;SDS011;44763;50.464;30.612;2022-10-16T10:13:03;3.60;;;2.75;;
58978;SDS011;44763;50.464;30.612;2022-10-16T10:15:33;6.23;;;3.50;;
58978;SDS011;44763;50.464;30.612;2022-10-16T10:18:00;4.83;;;2.60;;
58978;SDS011;44763;50.464;30.612;2022-10-16T10:20:32;3.10;;;2.90;;
58978;SDS011;44763;50.464;30.612;2022-10-16T10:23:19;2.43;;;2.33;;
58978;SDS011;44763;50.464;30.612;2022-10-16T10:31:43;4.62;;;2.98;;
58978;SDS011;44763;50.464;30.612;2022-10-16T10:34:32;4.35;;;3.47;;
58978;SDS011;44763;50.464;30.612;2022-10-16T10:37:16;3.70;;;3.23;;
58978;SDS011;44763;50.464;30.612;2022-10-16T10:46:07;4.42;;;3.42;;
58978;SDS011;44763;50.464;30.612;2022-10-16T11:01:20;3.47;;;3.17;;
58978;SDS011;44763;50.464;30.612;2022-10-16T11:06:55;2.98;;;2.50;;
58978;SDS011;44763;50.464;30.612;2022-10-16T11:09:39;5.30;;;3.83;;
58978;SDS011;44763;50.464;30.612;2022-10-16T11:12:19;3.25;;;2.92;;
58978;SDS011;44763;50.464;30.612;2022-10-16T11:17:55;4.78;;;3.50;;
58978;SDS011;44763;50.464;30.612;2022-10-16T11:20:45;4.70;;;3.58;;
58978;SDS011;44763;50.464;30.612;2022-10-16T11:28:51;6.37;;;3.60;;
58978;SDS011;44763;50.464;30.612;2022-10-16T11:31:43;3.50;;;3.03;;
58978;SDS011;44763;50.464;30.612;2022-10-16T11:34:12;4.33;;;3.93;;
58978;SDS011;44763;50.464;30.612;2022-10-16T11:39:22;4.30;;;3.90;;
58978;SDS011;44763;50.464;30.612;2022-10-16T11:44:43;4.70;;;4.30;;
58978;SDS011;44763;50.464;30.612;2022-10-16T11:47:39;5.22;;;4.15;;
58978;SDS011;44763;50.464;30.612;2022-10-16T11:55:58;7.33;;;3.35;;
58978;SDS011;44763;50.464;30.612;2022-10-16T12:06:53;9.38;;;4.40;;
58978;SDS011;44763;50.464;30.612;2022-10-16T12:09:34;4.75;;;4.12;;
58978;SDS011;44763;50.464;30.612;2022-10-16T12:12:23;4.83;;;4.33;;
58978;SDS011;44763;50.464;30.612;2022-10-16T12:15:01;7.00;;;4.22;;
58978;SDS011;44763;50.464;30.612;2022-10-16T12:17:48;3.45;;;3.02;;
58978;SDS011;44763;50.464;30.612;2022-10-16T12:20:24;4.20;;;3.90;;
58978;SDS011;44763;50.464;30.612;2022-10-16T12:23:02;5.28;;;4.00;;
58978;SDS011;44763;50.464;30.612;2022-10-16T12:25:33;5.62;;;4.92;;
58978;SDS011;44763;50.464;30.612;2022-10-16T12:28:05;6.03;;;3.77;;
58978;SDS011;44763;50.464;30.612;2022-10-16T12:30:53;4.05;;;3.45;;
58978;SDS011;44763;50.464;30.612;2022-10-16T12:33:24;4.10;;;3.80;;
58978;SDS011;44763;50.464;30.612;2022-10-16T12:35:53;4.62;;;3.87;;
58978;SDS011;44763;50.464;30.612;2022-10-16T12:38:24;7.17;;;4.60;;
58978;SDS011;44763;50.464;30.612;2022-10-16T12:41:08;4.72;;;3.33;;
58978;SDS011;44763;50.464;30.612;2022-10-16T12:43:37;5.65;;;4.17;;
58978;SDS011;44763;50.464;30.612;2022-10-16T12:48:44;5.55;;;3.42;;
58978;SDS011;44763;50.464;30.612;2022-10-16T12:54:02;4.45;;;2.90;;
58978;SDS011;44763;50.464;30.612;2022-10-16T13:19:41;6.97;;;4.80;;
58978;SDS011;44763;50.464;30.612;2022-10-16T13:28:07;4.20;;;3.22;;
58978;SDS011;44763;50.464;30.612;2022-10-16T13:30:40;5.75;;;3.42;;
58978;SDS011;44763;50.464;30.612;2022-10-16T13:33:21;5.30;;;3.85;;
58978;SDS011;44763;50.464;30.612;2022-10-16T13:36:03;4.70;;;4.20;;
58978;SDS011;44763;50.464;30.612;2022-10-16T13:38:33;3.75;;;3.45;;
58978;SDS011;44763;50.464;30.612;2022-10-16T13:41:03;3.02;;;2.83;;
58978;SDS011;44763;50.464;30.612;2022-10-16T13:43:33;3.85;;;3.30;;
58978;SDS011;44763;50.464;30.612;2022-10-16T13:46:18;3.02;;;2.72;;
58978;SDS011;44763;50.464;30.612;2022-10-16T13:48:57;6.13;;;3.27;;
58978;SDS011;44763;50.464;30.612;2022-10-16T13:51:26;4.87;;;3.75;;
58978;SDS011;44763;50.464;30.612;2022-10-16T13:53:53;5.45;;;3.20;;
58978;SDS011;44763;50.464;30.612;2022-10-16T13:56:24;3.58;;;3.15;;
58978;SDS011;44763;50.464;30.612;2022-10-16T13:59:04;2.55;;;2.35;;
58978;SDS011;44763;50.464;30.612;2022-10-16T14:01:34;5.72;;;2.77;;
58978;SDS011;44763;50.464;30.612;2022-10-16T14:04:11;5.95;;;2.77;;
58978;SDS011;44763;50.464;30.612;2022-10-16T14:06:42;4.37;;;2.83;;
58978;SDS011;44763;50.464;30.612;2022-10-16T14:09:25;7.47;;;2.55;;
58978;SDS011;44763;50.464;30.612;2022-10-16T14:14:38;5.72;;;2.90;;
58978;SDS011;44763;50.464;30.612;2022-10-16T14:17:18;3.98;;;2.47;;
58978;SDS011;44763;50.464;30.612;2022-10-16T14:19:49;4.35;;;2.75;;
58978;SDS011;44763;50.464;30.612;2022-10-16T14:22:24;5.12;;;2.05;;
58978;SDS011;44763;50.464;30.612;2022-10-16T14:24:57;6.63;;;2.70;;
58978;SDS011;44763;50.464;30.612;2022-10-16T14:32:57;5.47;;;1.90;;
58978;SDS011;44763;50.464;30.612;2022-10-16T14:35:31;2.50;;;1.03;;
58978;SDS011;44763;50.464;30.612;2022-10-16T14:38:01;4.00;;;1.50;;
58978;SDS011;44763;50.464;30.612;2022-10-16T14:40:35;1.70;;;1.60;;
58978;SDS011;44763;50.464;30.612;2022-10-16T14:43:01;3.65;;;2.52;;
58978;SDS011;44763;50.464;30.612;2022-10-16T14:45:36;2.42;;;2.17;;
58978;SDS011;44763;50.464;30.612;2022-10-16T14:48:03;3.33;;;1.92;;
58978;SDS011;44763;50.464;30.612;2022-10-16T14:50:32;3.27;;;2.05;;
58978;SDS011;44763;50.464;30.612;2022-10-16T14:52:58;5.37;;;2.67;;
58978;SDS011;44763;50.464;30.612;2022-10-16T14:55:24;3.12;;;1.80;;
58978;SDS011;44763;50.464;30.612;2022-10-16T14:57:51;3.30;;;2.65;;
58978;SDS011;44763;50.464;30.612;2022-10-16T15:00:21;3.67;;;2.87;;
58978;SDS011;44763;50.464;30.612;2022-10-16T15:02:49;2.63;;;2.37;;
58978;SDS011;44763;50.464;30.612;2022-10-16T15:07:54;3.37;;;2.57;;
58978;SDS011;44763;50.464;30.612;2022-10-16T15:10:21;5.90;;;2.67;;
58978;SDS011;44763;50.464;30.612;2022-10-16T15:12:51;3.87;;;2.60;;
58978;SDS011;44763;50.464;30.612;2022-10-16T15:20:23;2.67;;;2.47;;
58978;SDS011;44763;50.464;30.612;2022-10-16T15:22:52;3.60;;;2.97;;
58978;SDS011;44763;50.464;30.612;2022-10-16T15:28:14;5.57;;;3.37;;
58978;SDS011;44763;50.464;30.612;2022-10-16T15:30:43;3.23;;;2.90;;
58978;SDS011;44763;50.464;30.612;2022-10-16T15:33:12;4.10;;;3.70;;
58978;SDS011;44763;50.464;30.612;2022-10-16T15:35:47;5.27;;;4.17;;
58978;SDS011;44763;50.464;30.612;2022-10-16T15:38:15;6.10;;;3.80;;
58978;SDS011;44763;50.464;30.612;2022-10-16T15:40:44;5.57;;;4.13;;
58978;SDS011;44763;50.464;30.612;2022-10-16T15:43:12;4.20;;;3.57;;
58978;SDS011;44763;50.464;30.612;2022-10-16T15:45:38;7.85;;;4.80;;
58978;SDS011;44763;50.464;30.612;2022-10-16T15:48:05;11.97;;;5.57;;
58978;SDS011;44763;50.464;30.612;2022-10-16T15:50:31;8.18;;;6.62;;
58978;SDS011;44763;50.464;30.612;2022-10-16T15:52:58;10.93;;;7.07;;
58978;SDS011;44763;50.464;30.612;2022-10-16T15:55:24;11.30;;;7.22;;
58978;SDS011;44763;50.464;30.612;2022-10-16T15:57:50;9.55;;;5.87;;
58978;SDS011;44763;50.464;30.612;2022-10-16T16:00:18;11.03;;;5.90;;
58978;SDS011;44763;50.464;30.612;2022-10-16T16:02:50;8.10;;;5.40;;
58978;SDS011;44763;50.464;30.612;2022-10-16T16:05:19;11.67;;;5.47;;
58978;SDS011;44763;50.464;30.612;2022-10-16T16:07:49;10.17;;;5.97;;
58978;SDS011;44763;50.464;30.612;2022-10-16T16:10:16;8.77;;;6.30;;
58978;SDS011;44763;50.464;30.612;2022-10-16T16:12:45;9.10;;;6.13;;
58978;SDS011;44763;50.464;30.612;2022-10-16T16:15:16;8.23;;;6.10;;
58978;SDS011;44763;50.464;30.612;2022-10-16T16:17:42;6.90;;;6.03;;
58978;SDS011;44763;50.464;30.612;2022-10-16T16:20:09;6.70;;;5.83;;
58978;SDS011;44763;50.464;30.612;2022-10-16T16:22:37;7.27;;;6.57;;
58978;SDS011;44763;50.464;30.612;2022-10-16T16:25:04;8.13;;;6.70;;
58978;SDS011;44763;50.464;30.612;2022-10-16T16:27:32;9.07;;;7.23;;
58978;SDS011;44763;50.464;30.612;2022-10-16T16:30:00;7.37;;;6.50;;
58978;SDS011;44763;50.464;30.612;2022-10-16T16:32:29;6.83;;;5.43;;
58978;SDS011;44763;50.464;30.612;2022-10-16T16:37:21;8.03;;;5.80;;
58978;SDS011;44763;50.464;30.612;2022-10-16T16:39:49;7.30;;;5.43;;
58978;SDS011;44763;50.464;30.612;2022-10-16T16:42:15;9.43;;;5.70;;
58978;SDS011;44763;50.464;30.612;2022-10-16T16:44:42;9.87;;;5.53;;
58978;SDS011;44763;50.464;30.612;2022-10-16T16:47:09;5.78;;;5.17;;
58978;SDS011;44763;50.464;30.612;2022-10-16T16:52:01;7.77;;;5.27;;
58978;SDS011;44763;50.464;30.612;2022-10-16T16:54:27;14.90;;;6.10;;
58978;SDS011;44763;50.464;30.612;2022-10-16T16:56:54;6.67;;;5.65;;
58978;SDS011;44763;50.464;30.612;2022-10-16T16:59:20;7.25;;;5.50;;
58978;SDS011;44763;50.464;30.612;2022-10-16T17:01:47;6.60;;;5.87;;
58978;SDS011;44763;50.464;30.612;2022-10-16T17:04:15;10.23;;;7.03;;
58978;SDS011;44763;50.464;30.612;2022-10-16T17:06:42;9.17;;;6.03;;
58978;SDS011;44763;50.464;30.612;2022-10-16T17:11:37;11.20;;;6.83;;
58978;SDS011;44763;50.464;30.612;2022-10-16T17:14:08;8.23;;;5.53;;
58978;SDS011;44763;50.464;30.612;2022-10-16T17:16:36;8.77;;;6.97;;
58978;SDS011;44763;50.464;30.612;2022-10-16T17:19:04;7.93;;;6.87;;